Aviation Digital Data Service (ADDS)

Output produced by METARs form (0856 UTC 23 July 2019)
found at http://www.aviationweather.gov/metar/data/
 
Forecast for: ZLLL (LANZHOU , CN)
Text: TAF ZLLL 230300Z 2306/2406 17003MPS 6000 SCT023 TX28/2309Z TN15/2322Z
Forecast period: 0600 UTC 23 July 2019 to 0600 UTC 24 July 2019
Forecast type: FROM: standard forecast or significant change
Winds: from the S (170 degrees) at 7 MPH (6 knots; 3.1 m/s)
Visibility: 4 miles (6 km)
Ceiling: at least 12,000 feet AGL
Clouds: scattered clouds at 2300 feet AGL
Weather: no significant weather forecast for this period
Text: TEMPO 2306/2312 -SHRA SCT023 FEW033CB
Forecast period: 0600 to 1200 UTC 23 July 2019
Forecast type: TEMPORARY: The following changes expected for less than half the time period
Visibility: missing
Ceiling: at least 12,000 feet AGL
Clouds: scattered clouds at 2300 feet AGL
few clouds at 3300 feet AGL
Weather: -SHRA  (light rain showers)